sensor_id;sensor_type;location;lat;lon;timestamp;P1;durP1;ratioP1;P2;durP2;ratioP2
20065;SDS011;10193;48.884;9.182;2022-12-07T00:01:49;5.10;;;4.60;;
20065;SDS011;10193;48.884;9.182;2022-12-07T00:04:17;4.90;;;4.40;;
20065;SDS011;10193;48.884;9.182;2022-12-07T00:06:46;5.23;;;4.73;;
20065;SDS011;10193;48.884;9.182;2022-12-07T00:09:17;4.87;;;4.47;;
20065;SDS011;10193;48.884;9.182;2022-12-07T00:11:44;4.63;;;4.23;;
20065;SDS011;10193;48.884;9.182;2022-12-07T00:14:14;4.77;;;4.37;;
20065;SDS011;10193;48.884;9.182;2022-12-07T00:16:42;4.70;;;4.30;;
20065;SDS011;10193;48.884;9.182;2022-12-07T00:19:09;5.00;;;4.20;;
20065;SDS011;10193;48.884;9.182;2022-12-07T00:21:37;4.40;;;4.00;;
20065;SDS011;10193;48.884;9.182;2022-12-07T00:24:05;4.60;;;4.20;;
20065;SDS011;10193;48.884;9.182;2022-12-07T00:26:33;4.87;;;4.43;;
20065;SDS011;10193;48.884;9.182;2022-12-07T00:29:02;4.60;;;4.20;;
20065;SDS011;10193;48.884;9.182;2022-12-07T00:31:30;4.83;;;4.43;;
20065;SDS011;10193;48.884;9.182;2022-12-07T00:34:00;4.80;;;4.30;;
20065;SDS011;10193;48.884;9.182;2022-12-07T00:36:27;4.27;;;3.97;;
20065;SDS011;10193;48.884;9.182;2022-12-07T00:38:54;4.70;;;4.30;;
20065;SDS011;10193;48.884;9.182;2022-12-07T00:41:25;4.80;;;4.40;;
20065;SDS011;10193;48.884;9.182;2022-12-07T00:43:53;4.90;;;4.40;;
20065;SDS011;10193;48.884;9.182;2022-12-07T00:46:20;4.60;;;4.20;;
20065;SDS011;10193;48.884;9.182;2022-12-07T00:48:47;4.80;;;4.40;;
20065;SDS011;10193;48.884;9.182;2022-12-07T00:51:16;4.40;;;4.00;;
20065;SDS011;10193;48.884;9.182;2022-12-07T00:53:44;4.73;;;4.33;;
20065;SDS011;10193;48.884;9.182;2022-12-07T00:56:12;4.63;;;4.23;;
20065;SDS011;10193;48.884;9.182;2022-12-07T00:58:40;4.70;;;4.30;;
20065;SDS011;10193;48.884;9.182;2022-12-07T01:01:08;5.07;;;4.63;;
20065;SDS011;10193;48.884;9.182;2022-12-07T01:03:36;5.00;;;4.50;;
20065;SDS011;10193;48.884;9.182;2022-12-07T01:06:03;5.40;;;4.90;;
20065;SDS011;10193;48.884;9.182;2022-12-07T01:08:30;5.27;;;4.77;;
20065;SDS011;10193;48.884;9.182;2022-12-07T01:10:58;5.17;;;4.60;;
20065;SDS011;10193;48.884;9.182;2022-12-07T01:13:25;4.87;;;4.37;;
20065;SDS011;10193;48.884;9.182;2022-12-07T01:15:55;4.70;;;4.30;;
20065;SDS011;10193;48.884;9.182;2022-12-07T01:18:24;4.97;;;4.57;;
20065;SDS011;10193;48.884;9.182;2022-12-07T01:20:57;5.30;;;4.80;;
20065;SDS011;10193;48.884;9.182;2022-12-07T01:23:24;5.23;;;4.70;;
20065;SDS011;10193;48.884;9.182;2022-12-07T01:25:53;5.47;;;4.97;;
20065;SDS011;10193;48.884;9.182;2022-12-07T01:28:20;5.63;;;5.03;;
20065;SDS011;10193;48.884;9.182;2022-12-07T01:30:55;5.30;;;4.80;;
20065;SDS011;10193;48.884;9.182;2022-12-07T01:33:23;5.23;;;4.73;;
20065;SDS011;10193;48.884;9.182;2022-12-07T01:35:49;5.30;;;4.80;;
20065;SDS011;10193;48.884;9.182;2022-12-07T01:38:16;4.90;;;4.50;;
20065;SDS011;10193;48.884;9.182;2022-12-07T01:40:43;5.50;;;5.00;;
20065;SDS011;10193;48.884;9.182;2022-12-07T01:43:13;5.03;;;4.53;;
20065;SDS011;10193;48.884;9.182;2022-12-07T01:45:43;5.33;;;4.80;;
20065;SDS011;10193;48.884;9.182;2022-12-07T01:48:12;5.23;;;4.73;;
20065;SDS011;10193;48.884;9.182;2022-12-07T01:50:41;5.27;;;4.77;;
20065;SDS011;10193;48.884;9.182;2022-12-07T01:53:10;5.10;;;4.60;;
20065;SDS011;10193;48.884;9.182;2022-12-07T01:55:40;5.17;;;4.77;;
20065;SDS011;10193;48.884;9.182;2022-12-07T01:58:10;5.53;;;5.03;;
20065;SDS011;10193;48.884;9.182;2022-12-07T02:00:38;5.17;;;4.67;;
20065;SDS011;10193;48.884;9.182;2022-12-07T02:03:05;5.20;;;4.70;;
20065;SDS011;10193;48.884;9.182;2022-12-07T02:05:37;4.93;;;4.43;;
20065;SDS011;10193;48.884;9.182;2022-12-07T02:08:06;5.27;;;4.77;;
20065;SDS011;10193;48.884;9.182;2022-12-07T02:10:34;4.83;;;4.43;;
20065;SDS011;10193;48.884;9.182;2022-12-07T02:13:01;4.80;;;4.30;;
20065;SDS011;10193;48.884;9.182;2022-12-07T02:15:34;5.10;;;4.60;;
20065;SDS011;10193;48.884;9.182;2022-12-07T02:18:09;5.43;;;4.90;;
20065;SDS011;10193;48.884;9.182;2022-12-07T02:20:43;4.93;;;4.53;;
20065;SDS011;10193;48.884;9.182;2022-12-07T02:23:27;5.10;;;4.60;;
20065;SDS011;10193;48.884;9.182;2022-12-07T02:26:24;4.97;;;4.47;;
20065;SDS011;10193;48.884;9.182;2022-12-07T02:29:11;4.80;;;4.40;;
20065;SDS011;10193;48.884;9.182;2022-12-07T02:31:43;5.90;;;4.70;;
20065;SDS011;10193;48.884;9.182;2022-12-07T02:34:14;5.07;;;4.57;;
20065;SDS011;10193;48.884;9.182;2022-12-07T02:36:50;5.70;;;4.67;;
20065;SDS011;10193;48.884;9.182;2022-12-07T02:39:22;5.67;;;5.03;;
20065;SDS011;10193;48.884;9.182;2022-12-07T02:41:55;5.00;;;4.50;;
20065;SDS011;10193;48.884;9.182;2022-12-07T02:44:28;4.77;;;4.37;;
20065;SDS011;10193;48.884;9.182;2022-12-07T02:46:58;5.37;;;4.87;;
20065;SDS011;10193;48.884;9.182;2022-12-07T02:49:28;5.03;;;4.53;;
20065;SDS011;10193;48.884;9.182;2022-12-07T02:51:56;4.30;;;3.90;;
20065;SDS011;10193;48.884;9.182;2022-12-07T02:54:23;4.57;;;4.17;;
20065;SDS011;10193;48.884;9.182;2022-12-07T02:56:50;4.63;;;4.23;;
20065;SDS011;10193;48.884;9.182;2022-12-07T02:59:22;4.97;;;4.47;;
20065;SDS011;10193;48.884;9.182;2022-12-07T03:02:02;4.83;;;4.37;;
20065;SDS011;10193;48.884;9.182;2022-12-07T03:04:43;5.00;;;4.17;;
20065;SDS011;10193;48.884;9.182;2022-12-07T03:07:18;4.10;;;3.70;;
20065;SDS011;10193;48.884;9.182;2022-12-07T03:09:52;4.50;;;4.10;;
20065;SDS011;10193;48.884;9.182;2022-12-07T03:12:27;4.60;;;4.20;;
20065;SDS011;10193;48.884;9.182;2022-12-07T03:15:01;5.17;;;4.27;;
20065;SDS011;10193;48.884;9.182;2022-12-07T03:17:32;4.27;;;3.93;;
20065;SDS011;10193;48.884;9.182;2022-12-07T03:20:04;4.10;;;3.70;;
20065;SDS011;10193;48.884;9.182;2022-12-07T03:22:34;4.60;;;4.10;;
20065;SDS011;10193;48.884;9.182;2022-12-07T03:25:05;4.67;;;4.27;;
20065;SDS011;10193;48.884;9.182;2022-12-07T03:27:36;4.63;;;4.20;;
20065;SDS011;10193;48.884;9.182;2022-12-07T03:30:10;5.23;;;4.30;;
20065;SDS011;10193;48.884;9.182;2022-12-07T03:32:41;4.80;;;4.37;;
20065;SDS011;10193;48.884;9.182;2022-12-07T03:35:12;4.60;;;4.20;;
20065;SDS011;10193;48.884;9.182;2022-12-07T03:37:44;4.67;;;4.27;;
20065;SDS011;10193;48.884;9.182;2022-12-07T03:40:15;4.53;;;4.13;;
20065;SDS011;10193;48.884;9.182;2022-12-07T03:42:48;5.17;;;4.23;;
20065;SDS011;10193;48.884;9.182;2022-12-07T03:45:17;4.47;;;4.07;;
20065;SDS011;10193;48.884;9.182;2022-12-07T03:47:47;4.30;;;3.90;;
20065;SDS011;10193;48.884;9.182;2022-12-07T03:50:21;4.70;;;4.30;;
20065;SDS011;10193;48.884;9.182;2022-12-07T03:52:54;4.40;;;4.00;;
20065;SDS011;10193;48.884;9.182;2022-12-07T03:55:26;4.80;;;4.40;;
20065;SDS011;10193;48.884;9.182;2022-12-07T03:57:57;4.53;;;4.13;;
20065;SDS011;10193;48.884;9.182;2022-12-07T04:00:28;4.63;;;4.23;;
20065;SDS011;10193;48.884;9.182;2022-12-07T04:02:55;4.63;;;4.23;;
20065;SDS011;10193;48.884;9.182;2022-12-07T04:05:22;4.77;;;4.27;;
20065;SDS011;10193;48.884;9.182;2022-12-07T04:07:49;4.67;;;4.27;;
20065;SDS011;10193;48.884;9.182;2022-12-07T04:10:16;4.63;;;4.23;;
20065;SDS011;10193;48.884;9.182;2022-12-07T04:12:43;5.33;;;4.50;;
20065;SDS011;10193;48.884;9.182;2022-12-07T04:15:10;5.33;;;4.83;;
20065;SDS011;10193;48.884;9.182;2022-12-07T04:17:38;5.40;;;4.90;;
20065;SDS011;10193;48.884;9.182;2022-12-07T04:20:05;5.40;;;4.90;;
20065;SDS011;10193;48.884;9.182;2022-12-07T04:22:33;5.40;;;4.90;;
20065;SDS011;10193;48.884;9.182;2022-12-07T04:25:00;5.73;;;5.20;;
20065;SDS011;10193;48.884;9.182;2022-12-07T04:27:26;5.40;;;4.90;;
20065;SDS011;10193;48.884;9.182;2022-12-07T04:29:53;5.40;;;4.90;;
20065;SDS011;10193;48.884;9.182;2022-12-07T04:32:20;5.50;;;5.00;;
20065;SDS011;10193;48.884;9.182;2022-12-07T04:34:48;5.33;;;4.83;;
20065;SDS011;10193;48.884;9.182;2022-12-07T04:37:16;5.50;;;5.00;;
20065;SDS011;10193;48.884;9.182;2022-12-07T04:39:43;5.43;;;4.93;;
20065;SDS011;10193;48.884;9.182;2022-12-07T04:42:10;5.60;;;5.10;;
20065;SDS011;10193;48.884;9.182;2022-12-07T04:44:37;5.50;;;4.97;;
20065;SDS011;10193;48.884;9.182;2022-12-07T04:47:04;5.63;;;5.13;;
20065;SDS011;10193;48.884;9.182;2022-12-07T04:49:31;5.30;;;4.80;;
20065;SDS011;10193;48.884;9.182;2022-12-07T04:51:59;6.00;;;4.87;;
20065;SDS011;10193;48.884;9.182;2022-12-07T04:54:26;5.47;;;4.97;;
20065;SDS011;10193;48.884;9.182;2022-12-07T04:56:53;5.30;;;4.80;;
20065;SDS011;10193;48.884;9.182;2022-12-07T04:59:19;5.20;;;4.70;;
20065;SDS011;10193;48.884;9.182;2022-12-07T05:01:46;6.37;;;4.93;;
20065;SDS011;10193;48.884;9.182;2022-12-07T05:04:13;5.27;;;4.77;;
20065;SDS011;10193;48.884;9.182;2022-12-07T05:06:41;5.17;;;4.70;;
20065;SDS011;10193;48.884;9.182;2022-12-07T05:09:09;5.63;;;5.13;;
20065;SDS011;10193;48.884;9.182;2022-12-07T05:11:36;5.43;;;4.93;;
20065;SDS011;10193;48.884;9.182;2022-12-07T05:14:06;5.83;;;5.00;;
20065;SDS011;10193;48.884;9.182;2022-12-07T05:16:35;5.50;;;5.00;;
20065;SDS011;10193;48.884;9.182;2022-12-07T05:19:03;5.50;;;5.00;;
20065;SDS011;10193;48.884;9.182;2022-12-07T05:21:30;5.53;;;5.03;;
20065;SDS011;10193;48.884;9.182;2022-12-07T05:23:56;5.47;;;4.97;;
20065;SDS011;10193;48.884;9.182;2022-12-07T05:26:24;5.37;;;4.87;;
20065;SDS011;10193;48.884;9.182;2022-12-07T05:28:51;6.00;;;5.00;;
20065;SDS011;10193;48.884;9.182;2022-12-07T05:31:18;5.33;;;4.83;;
20065;SDS011;10193;48.884;9.182;2022-12-07T05:33:45;5.30;;;4.80;;
20065;SDS011;10193;48.884;9.182;2022-12-07T05:36:11;5.37;;;4.80;;
20065;SDS011;10193;48.884;9.182;2022-12-07T05:38:38;5.23;;;4.73;;
20065;SDS011;10193;48.884;9.182;2022-12-07T05:41:05;5.63;;;5.13;;
20065;SDS011;10193;48.884;9.182;2022-12-07T05:43:54;5.47;;;4.87;;
20065;SDS011;10193;48.884;9.182;2022-12-07T05:46:21;5.80;;;5.17;;
20065;SDS011;10193;48.884;9.182;2022-12-07T05:48:47;5.20;;;4.70;;
20065;SDS011;10193;48.884;9.182;2022-12-07T05:51:14;5.53;;;4.93;;
20065;SDS011;10193;48.884;9.182;2022-12-07T05:53:41;5.47;;;4.97;;
20065;SDS011;10193;48.884;9.182;2022-12-07T05:56:07;5.23;;;4.73;;
20065;SDS011;10193;48.884;9.182;2022-12-07T05:58:34;6.40;;;4.83;;
20065;SDS011;10193;48.884;9.182;2022-12-07T06:01:20;5.30;;;4.80;;
20065;SDS011;10193;48.884;9.182;2022-12-07T06:03:46;5.10;;;4.60;;
20065;SDS011;10193;48.884;9.182;2022-12-07T06:06:13;5.17;;;4.67;;
20065;SDS011;10193;48.884;9.182;2022-12-07T06:08:39;6.73;;;5.10;;
20065;SDS011;10193;48.884;9.182;2022-12-07T06:11:06;5.90;;;5.30;;
20065;SDS011;10193;48.884;9.182;2022-12-07T06:13:50;5.57;;;5.07;;
20065;SDS011;10193;48.884;9.182;2022-12-07T06:16:17;5.43;;;4.93;;
20065;SDS011;10193;48.884;9.182;2022-12-07T06:18:45;5.40;;;4.90;;
20065;SDS011;10193;48.884;9.182;2022-12-07T06:21:11;5.60;;;5.00;;
20065;SDS011;10193;48.884;9.182;2022-12-07T06:23:39;5.43;;;4.80;;
20065;SDS011;10193;48.884;9.182;2022-12-07T06:26:06;6.57;;;5.30;;
20065;SDS011;10193;48.884;9.182;2022-12-07T06:28:33;7.53;;;4.90;;
20065;SDS011;10193;48.884;9.182;2022-12-07T06:31:00;5.40;;;4.90;;
20065;SDS011;10193;48.884;9.182;2022-12-07T06:33:28;4.57;;;4.17;;
20065;SDS011;10193;48.884;9.182;2022-12-07T06:35:56;5.27;;;4.50;;
20065;SDS011;10193;48.884;9.182;2022-12-07T06:38:23;4.60;;;4.17;;
20065;SDS011;10193;48.884;9.182;2022-12-07T06:40:50;4.40;;;4.00;;
20065;SDS011;10193;48.884;9.182;2022-12-07T06:43:16;4.63;;;4.20;;
20065;SDS011;10193;48.884;9.182;2022-12-07T06:45:43;4.50;;;4.10;;
20065;SDS011;10193;48.884;9.182;2022-12-07T06:48:10;4.50;;;4.10;;
20065;SDS011;10193;48.884;9.182;2022-12-07T06:50:36;4.43;;;4.03;;
20065;SDS011;10193;48.884;9.182;2022-12-07T06:53:04;4.37;;;3.77;;
20065;SDS011;10193;48.884;9.182;2022-12-07T06:55:31;4.40;;;4.00;;
20065;SDS011;10193;48.884;9.182;2022-12-07T06:57:57;4.30;;;3.90;;
20065;SDS011;10193;48.884;9.182;2022-12-07T07:00:24;4.47;;;4.07;;
20065;SDS011;10193;48.884;9.182;2022-12-07T07:02:51;4.63;;;4.23;;
20065;SDS011;10193;48.884;9.182;2022-12-07T07:05:17;4.37;;;3.97;;
20065;SDS011;10193;48.884;9.182;2022-12-07T07:07:46;4.50;;;4.10;;
20065;SDS011;10193;48.884;9.182;2022-12-07T07:10:14;4.60;;;4.17;;
20065;SDS011;10193;48.884;9.182;2022-12-07T07:12:41;4.53;;;4.13;;
20065;SDS011;10193;48.884;9.182;2022-12-07T07:15:08;5.00;;;4.23;;
20065;SDS011;10193;48.884;9.182;2022-12-07T07:17:36;4.53;;;4.13;;
20065;SDS011;10193;48.884;9.182;2022-12-07T07:20:03;4.87;;;4.37;;
20065;SDS011;10193;48.884;9.182;2022-12-07T07:22:31;6.23;;;4.10;;
20065;SDS011;10193;48.884;9.182;2022-12-07T07:24:58;4.40;;;4.00;;
20065;SDS011;10193;48.884;9.182;2022-12-07T07:27:25;4.47;;;4.07;;
20065;SDS011;10193;48.884;9.182;2022-12-07T07:29:52;5.07;;;3.93;;
20065;SDS011;10193;48.884;9.182;2022-12-07T07:32:19;4.30;;;3.90;;
20065;SDS011;10193;48.884;9.182;2022-12-07T07:34:46;4.20;;;3.80;;
20065;SDS011;10193;48.884;9.182;2022-12-07T07:37:13;4.47;;;4.07;;
20065;SDS011;10193;48.884;9.182;2022-12-07T07:39:40;4.50;;;4.10;;
20065;SDS011;10193;48.884;9.182;2022-12-07T07:42:07;4.03;;;3.73;;
20065;SDS011;10193;48.884;9.182;2022-12-07T07:44:35;4.20;;;3.80;;
20065;SDS011;10193;48.884;9.182;2022-12-07T07:47:02;4.83;;;3.90;;
20065;SDS011;10193;48.884;9.182;2022-12-07T07:49:29;4.70;;;4.20;;
20065;SDS011;10193;48.884;9.182;2022-12-07T07:51:55;4.53;;;4.13;;
20065;SDS011;10193;48.884;9.182;2022-12-07T07:54:22;4.40;;;4.00;;
20065;SDS011;10193;48.884;9.182;2022-12-07T07:56:49;5.37;;;3.93;;
20065;SDS011;10193;48.884;9.182;2022-12-07T07:59:15;4.50;;;4.10;;
20065;SDS011;10193;48.884;9.182;2022-12-07T08:01:43;7.17;;;3.97;;
20065;SDS011;10193;48.884;9.182;2022-12-07T08:04:10;4.20;;;3.80;;
20065;SDS011;10193;48.884;9.182;2022-12-07T08:06:37;4.20;;;3.83;;
20065;SDS011;10193;48.884;9.182;2022-12-07T08:09:03;4.47;;;4.07;;
20065;SDS011;10193;48.884;9.182;2022-12-07T08:11:31;4.50;;;4.10;;
20065;SDS011;10193;48.884;9.182;2022-12-07T08:13:58;4.37;;;3.97;;
20065;SDS011;10193;48.884;9.182;2022-12-07T08:16:24;4.70;;;4.23;;
20065;SDS011;10193;48.884;9.182;2022-12-07T08:18:53;4.30;;;3.90;;
20065;SDS011;10193;48.884;9.182;2022-12-07T08:21:19;4.20;;;3.80;;
20065;SDS011;10193;48.884;9.182;2022-12-07T08:23:46;4.60;;;4.10;;
20065;SDS011;10193;48.884;9.182;2022-12-07T08:26:13;5.20;;;3.83;;
20065;SDS011;10193;48.884;9.182;2022-12-07T08:28:42;4.93;;;4.10;;
20065;SDS011;10193;48.884;9.182;2022-12-07T08:31:10;4.20;;;3.80;;
20065;SDS011;10193;48.884;9.182;2022-12-07T08:33:38;4.30;;;3.90;;
20065;SDS011;10193;48.884;9.182;2022-12-07T08:36:08;4.17;;;3.80;;
20065;SDS011;10193;48.884;9.182;2022-12-07T08:38:37;4.20;;;3.80;;
20065;SDS011;10193;48.884;9.182;2022-12-07T08:41:04;4.33;;;3.93;;
20065;SDS011;10193;48.884;9.182;2022-12-07T08:43:32;4.30;;;3.87;;
20065;SDS011;10193;48.884;9.182;2022-12-07T08:46:02;4.30;;;3.90;;
20065;SDS011;10193;48.884;9.182;2022-12-07T08:48:33;4.07;;;3.60;;
20065;SDS011;10193;48.884;9.182;2022-12-07T08:51:03;4.32;;;3.92;;
20065;SDS011;10193;48.884;9.182;2022-12-07T08:53:31;4.47;;;4.07;;
20065;SDS011;10193;48.884;9.182;2022-12-07T08:56:00;4.77;;;4.10;;
20065;SDS011;10193;48.884;9.182;2022-12-07T08:58:27;4.13;;;3.73;;
20065;SDS011;10193;48.884;9.182;2022-12-07T09:00:54;4.50;;;4.10;;
20065;SDS011;10193;48.884;9.182;2022-12-07T09:03:20;4.30;;;3.90;;
20065;SDS011;10193;48.884;9.182;2022-12-07T09:05:47;4.07;;;3.77;;
20065;SDS011;10193;48.884;9.182;2022-12-07T09:08:14;4.00;;;3.60;;
20065;SDS011;10193;48.884;9.182;2022-12-07T09:10:42;6.43;;;4.00;;
20065;SDS011;10193;48.884;9.182;2022-12-07T09:13:09;3.83;;;3.53;;
20065;SDS011;10193;48.884;9.182;2022-12-07T09:15:35;3.93;;;3.60;;
20065;SDS011;10193;48.884;9.182;2022-12-07T09:18:02;3.83;;;3.53;;
20065;SDS011;10193;48.884;9.182;2022-12-07T09:20:29;7.13;;;3.47;;
20065;SDS011;10193;48.884;9.182;2022-12-07T09:22:55;4.25;;;3.85;;
20065;SDS011;10193;48.884;9.182;2022-12-07T09:25:22;3.80;;;3.50;;
20065;SDS011;10193;48.884;9.182;2022-12-07T09:27:55;4.53;;;3.50;;
20065;SDS011;10193;48.884;9.182;2022-12-07T09:30:23;4.22;;;3.10;;
20065;SDS011;10193;48.884;9.182;2022-12-07T09:32:49;4.43;;;2.73;;
20065;SDS011;10193;48.884;9.182;2022-12-07T09:35:18;3.25;;;3.05;;
20065;SDS011;10193;48.884;9.182;2022-12-07T09:37:45;3.70;;;3.40;;
20065;SDS011;10193;48.884;9.182;2022-12-07T09:40:12;3.42;;;3.10;;
20065;SDS011;10193;48.884;9.182;2022-12-07T09:42:41;3.40;;;3.00;;
20065;SDS011;10193;48.884;9.182;2022-12-07T09:45:13;3.42;;;3.13;;
20065;SDS011;10193;48.884;9.182;2022-12-07T09:47:41;3.45;;;3.10;;
20065;SDS011;10193;48.884;9.182;2022-12-07T09:50:12;3.63;;;3.33;;
20065;SDS011;10193;48.884;9.182;2022-12-07T09:52:40;3.60;;;3.30;;
20065;SDS011;10193;48.884;9.182;2022-12-07T09:55:09;3.63;;;3.33;;
20065;SDS011;10193;48.884;9.182;2022-12-07T09:57:37;4.05;;;3.65;;
20065;SDS011;10193;48.884;9.182;2022-12-07T10:00:06;3.60;;;3.30;;
20065;SDS011;10193;48.884;9.182;2022-12-07T10:02:40;3.85;;;3.55;;
20065;SDS011;10193;48.884;9.182;2022-12-07T10:05:18;3.45;;;3.15;;
20065;SDS011;10193;48.884;9.182;2022-12-07T10:07:48;3.67;;;3.37;;
20065;SDS011;10193;48.884;9.182;2022-12-07T10:10:15;5.03;;;3.55;;
20065;SDS011;10193;48.884;9.182;2022-12-07T10:12:53;3.63;;;3.33;;
20065;SDS011;10193;48.884;9.182;2022-12-07T10:15:21;3.70;;;3.40;;
20065;SDS011;10193;48.884;9.182;2022-12-07T10:17:51;4.63;;;3.70;;
20065;SDS011;10193;48.884;9.182;2022-12-07T10:20:20;3.60;;;3.30;;
20065;SDS011;10193;48.884;9.182;2022-12-07T10:22:55;3.35;;;3.05;;
20065;SDS011;10193;48.884;9.182;2022-12-07T10:25:26;3.40;;;3.10;;
20065;SDS011;10193;48.884;9.182;2022-12-07T10:27:58;3.20;;;3.00;;
20065;SDS011;10193;48.884;9.182;2022-12-07T10:30:27;4.13;;;2.80;;
20065;SDS011;10193;48.884;9.182;2022-12-07T10:32:55;3.35;;;3.10;;
20065;SDS011;10193;48.884;9.182;2022-12-07T10:35:23;3.07;;;2.70;;
20065;SDS011;10193;48.884;9.182;2022-12-07T10:37:53;2.97;;;2.77;;
20065;SDS011;10193;48.884;9.182;2022-12-07T10:40:25;3.33;;;3.03;;
20065;SDS011;10193;48.884;9.182;2022-12-07T10:43:01;3.65;;;2.90;;
20065;SDS011;10193;48.884;9.182;2022-12-07T10:45:29;3.17;;;2.87;;
20065;SDS011;10193;48.884;9.182;2022-12-07T10:47:59;3.10;;;2.90;;
20065;SDS011;10193;48.884;9.182;2022-12-07T10:50:37;3.10;;;2.85;;
20065;SDS011;10193;48.884;9.182;2022-12-07T10:53:16;4.00;;;3.20;;
20065;SDS011;10193;48.884;9.182;2022-12-07T10:56:14;2.90;;;2.70;;
20065;SDS011;10193;48.884;9.182;2022-12-07T10:58:59;4.22;;;3.13;;
20065;SDS011;10193;48.884;9.182;2022-12-07T11:01:40;3.40;;;3.10;;
20065;SDS011;10193;48.884;9.182;2022-12-07T11:04:18;3.27;;;3.07;;
20065;SDS011;10193;48.884;9.182;2022-12-07T11:06:54;3.65;;;3.35;;
20065;SDS011;10193;48.884;9.182;2022-12-07T11:09:37;3.47;;;3.17;;
20065;SDS011;10193;48.884;9.182;2022-12-07T11:12:20;3.50;;;3.17;;
20065;SDS011;10193;48.884;9.182;2022-12-07T11:14:55;3.57;;;2.87;;
20065;SDS011;10193;48.884;9.182;2022-12-07T11:17:30;3.60;;;3.30;;
20065;SDS011;10193;48.884;9.182;2022-12-07T11:20:11;3.65;;;3.35;;
20065;SDS011;10193;48.884;9.182;2022-12-07T11:22:48;4.20;;;3.58;;
20065;SDS011;10193;48.884;9.182;2022-12-07T11:25:22;3.97;;;3.67;;
20065;SDS011;10193;48.884;9.182;2022-12-07T11:28:00;4.70;;;4.30;;
20065;SDS011;10193;48.884;9.182;2022-12-07T11:30:34;4.55;;;4.10;;
20065;SDS011;10193;48.884;9.182;2022-12-07T11:33:13;4.63;;;4.22;;
20065;SDS011;10193;48.884;9.182;2022-12-07T11:35:47;5.00;;;4.57;;
20065;SDS011;10193;48.884;9.182;2022-12-07T11:38:22;4.57;;;4.17;;
20065;SDS011;10193;48.884;9.182;2022-12-07T11:40:53;4.90;;;4.45;;
20065;SDS011;10193;48.884;9.182;2022-12-07T11:43:37;4.72;;;4.30;;
20065;SDS011;10193;48.884;9.182;2022-12-07T11:46:16;4.55;;;4.15;;
20065;SDS011;10193;48.884;9.182;2022-12-07T11:48:45;4.75;;;4.35;;
20065;SDS011;10193;48.884;9.182;2022-12-07T11:51:17;4.97;;;4.47;;
20065;SDS011;10193;48.884;9.182;2022-12-07T11:53:48;4.95;;;4.53;;
20065;SDS011;10193;48.884;9.182;2022-12-07T11:56:19;5.20;;;4.70;;
20065;SDS011;10193;48.884;9.182;2022-12-07T11:58:49;5.03;;;4.55;;
20065;SDS011;10193;48.884;9.182;2022-12-07T12:01:26;4.75;;;4.35;;
20065;SDS011;10193;48.884;9.182;2022-12-07T12:04:02;4.53;;;4.13;;
20065;SDS011;10193;48.884;9.182;2022-12-07T12:06:40;5.43;;;4.70;;
20065;SDS011;10193;48.884;9.182;2022-12-07T12:09:11;5.20;;;4.47;;
20065;SDS011;10193;48.884;9.182;2022-12-07T12:11:45;4.93;;;4.30;;
20065;SDS011;10193;48.884;9.182;2022-12-07T12:14:27;4.75;;;4.20;;
20065;SDS011;10193;48.884;9.182;2022-12-07T12:20:16;4.85;;;4.35;;
20065;SDS011;10193;48.884;9.182;2022-12-07T12:22:49;4.50;;;4.10;;
20065;SDS011;10193;48.884;9.182;2022-12-07T12:25:20;4.80;;;4.20;;
20065;SDS011;10193;48.884;9.182;2022-12-07T12:27:49;4.93;;;4.25;;
20065;SDS011;10193;48.884;9.182;2022-12-07T12:30:25;4.80;;;4.30;;
20065;SDS011;10193;48.884;9.182;2022-12-07T12:33:02;4.72;;;4.32;;
20065;SDS011;10193;48.884;9.182;2022-12-07T12:35:32;5.70;;;4.70;;
20065;SDS011;10193;48.884;9.182;2022-12-07T12:40:58;6.03;;;4.85;;
20065;SDS011;10193;48.884;9.182;2022-12-07T12:43:42;5.45;;;4.90;;
20065;SDS011;10193;48.884;9.182;2022-12-07T12:49:30;4.78;;;4.38;;
20065;SDS011;10193;48.884;9.182;2022-12-07T12:55:15;5.13;;;4.63;;
20065;SDS011;10193;48.884;9.182;2022-12-07T12:57:46;5.28;;;4.20;;
20065;SDS011;10193;48.884;9.182;2022-12-07T13:00:17;5.03;;;4.57;;
20065;SDS011;10193;48.884;9.182;2022-12-07T13:02:49;5.07;;;4.57;;
20065;SDS011;10193;48.884;9.182;2022-12-07T13:05:18;5.68;;;5.07;;
20065;SDS011;10193;48.884;9.182;2022-12-07T13:07:56;5.30;;;4.80;;
20065;SDS011;10193;48.884;9.182;2022-12-07T13:13:30;5.70;;;5.20;;
20065;SDS011;10193;48.884;9.182;2022-12-07T13:22:34;6.13;;;4.88;;
20065;SDS011;10193;48.884;9.182;2022-12-07T13:25:11;6.68;;;5.60;;
20065;SDS011;10193;48.884;9.182;2022-12-07T13:27:47;6.23;;;5.43;;
20065;SDS011;10193;48.884;9.182;2022-12-07T13:30:20;6.20;;;5.60;;
20065;SDS011;10193;48.884;9.182;2022-12-07T13:32:51;5.95;;;5.38;;
20065;SDS011;10193;48.884;9.182;2022-12-07T13:35:28;6.05;;;5.45;;
20065;SDS011;10193;48.884;9.182;2022-12-07T13:37:56;6.45;;;5.20;;
20065;SDS011;10193;48.884;9.182;2022-12-07T13:40:23;6.28;;;5.60;;
20065;SDS011;10193;48.884;9.182;2022-12-07T13:42:57;5.55;;;4.95;;
20065;SDS011;10193;48.884;9.182;2022-12-07T13:45:26;6.20;;;5.60;;
20065;SDS011;10193;48.884;9.182;2022-12-07T13:48:08;6.30;;;5.70;;
20065;SDS011;10193;48.884;9.182;2022-12-07T13:50:40;6.20;;;5.60;;
20065;SDS011;10193;48.884;9.182;2022-12-07T13:53:10;5.88;;;5.28;;
20065;SDS011;10193;48.884;9.182;2022-12-07T13:55:43;6.03;;;5.43;;
20065;SDS011;10193;48.884;9.182;2022-12-07T13:58:12;5.38;;;4.88;;
20065;SDS011;10193;48.884;9.182;2022-12-07T14:00:39;6.10;;;5.50;;
20065;SDS011;10193;48.884;9.182;2022-12-07T14:03:20;7.03;;;5.88;;
20065;SDS011;10193;48.884;9.182;2022-12-07T14:06:11;6.43;;;5.83;;
20065;SDS011;10193;48.884;9.182;2022-12-07T14:08:42;5.82;;;5.22;;
20065;SDS011;10193;48.884;9.182;2022-12-07T14:11:10;6.60;;;5.90;;
20065;SDS011;10193;48.884;9.182;2022-12-07T14:13:45;6.07;;;5.47;;
20065;SDS011;10193;48.884;9.182;2022-12-07T14:16:23;6.63;;;6.00;;
20065;SDS011;10193;48.884;9.182;2022-12-07T14:18:52;6.33;;;5.67;;
20065;SDS011;10193;48.884;9.182;2022-12-07T14:21:20;6.30;;;5.70;;
20065;SDS011;10193;48.884;9.182;2022-12-07T14:24:01;6.73;;;6.00;;
20065;SDS011;10193;48.884;9.182;2022-12-07T14:26:37;7.00;;;6.30;;
20065;SDS011;10193;48.884;9.182;2022-12-07T14:32:09;7.03;;;6.10;;
20065;SDS011;10193;48.884;9.182;2022-12-07T14:34:52;6.73;;;6.10;;
20065;SDS011;10193;48.884;9.182;2022-12-07T14:37:23;6.93;;;6.17;;
20065;SDS011;10193;48.884;9.182;2022-12-07T14:39:50;7.00;;;6.30;;
20065;SDS011;10193;48.884;9.182;2022-12-07T14:42:17;6.68;;;5.97;;
20065;SDS011;10193;48.884;9.182;2022-12-07T14:44:45;6.80;;;6.10;;
20065;SDS011;10193;48.884;9.182;2022-12-07T14:47:12;6.60;;;6.00;;
20065;SDS011;10193;48.884;9.182;2022-12-07T14:49:38;6.43;;;5.60;;
20065;SDS011;10193;48.884;9.182;2022-12-07T14:52:05;6.90;;;6.20;;
20065;SDS011;10193;48.884;9.182;2022-12-07T14:54:35;6.57;;;5.87;;
20065;SDS011;10193;48.884;9.182;2022-12-07T14:57:02;6.27;;;5.63;;
20065;SDS011;10193;48.884;9.182;2022-12-07T14:59:29;6.23;;;5.63;;
20065;SDS011;10193;48.884;9.182;2022-12-07T15:01:57;6.60;;;5.87;;
20065;SDS011;10193;48.884;9.182;2022-12-07T15:04:23;7.90;;;6.23;;
20065;SDS011;10193;48.884;9.182;2022-12-07T15:06:56;6.23;;;5.53;;
20065;SDS011;10193;48.884;9.182;2022-12-07T15:09:24;6.53;;;5.23;;
20065;SDS011;10193;48.884;9.182;2022-12-07T15:11:51;6.28;;;5.68;;
20065;SDS011;10193;48.884;9.182;2022-12-07T15:14:17;6.60;;;5.43;;
20065;SDS011;10193;48.884;9.182;2022-12-07T15:16:44;6.23;;;5.63;;
20065;SDS011;10193;48.884;9.182;2022-12-07T15:19:14;6.23;;;5.63;;
20065;SDS011;10193;48.884;9.182;2022-12-07T15:21:42;6.73;;;6.03;;
20065;SDS011;10193;48.884;9.182;2022-12-07T15:24:09;7.13;;;6.37;;
20065;SDS011;10193;48.884;9.182;2022-12-07T15:26:37;6.63;;;5.90;;
20065;SDS011;10193;48.884;9.182;2022-12-07T15:29:05;6.90;;;6.20;;
20065;SDS011;10193;48.884;9.182;2022-12-07T15:31:32;7.30;;;6.40;;